sensor_id;sensor_type;location;lat;lon;timestamp;temperature;humidity
68648;SHT31;55632;51.962;16.116;2023-03-03T00:02:02;0.10;91.56
68648;SHT31;55632;51.962;16.116;2023-03-03T00:07:03;0.02;91.72
68648;SHT31;55632;51.962;16.116;2023-03-03T00:12:22;0.05;91.79
68648;SHT31;55632;51.962;16.116;2023-03-03T00:17:28;0.01;91.75
68648;SHT31;55632;51.962;16.116;2023-03-03T00:22:35;-0.02;91.75
68648;SHT31;55632;51.962;16.116;2023-03-03T00:27:36;0.02;92.01
68648;SHT31;55632;51.962;16.116;2023-03-03T00:32:42;0.04;91.89
68648;SHT31;55632;51.962;16.116;2023-03-03T00:37:43;0.08;91.82
68648;SHT31;55632;51.962;16.116;2023-03-03T00:42:48;0.08;91.89
68648;SHT31;55632;51.962;16.116;2023-03-03T00:47:50;0.07;91.75
68648;SHT31;55632;51.962;16.116;2023-03-03T00:53:04;0.05;91.81
68648;SHT31;55632;51.962;16.116;2023-03-03T00:58:06;0.04;91.85
68648;SHT31;55632;51.962;16.116;2023-03-03T01:03:15;0.05;91.80
68648;SHT31;55632;51.962;16.116;2023-03-03T01:08:17;0.02;91.45
68648;SHT31;55632;51.962;16.116;2023-03-03T01:13:20;-0.05;91.38
68648;SHT31;55632;51.962;16.116;2023-03-03T01:18:22;-0.09;91.52
68648;SHT31;55632;51.962;16.116;2023-03-03T01:23:25;-0.14;91.45
68648;SHT31;55632;51.962;16.116;2023-03-03T01:28:25;-0.21;91.37
68648;SHT31;55632;51.962;16.116;2023-03-03T01:33:26;-0.30;91.33
68648;SHT31;55632;51.962;16.116;2023-03-03T01:38:27;-0.34;91.61
68648;SHT31;55632;51.962;16.116;2023-03-03T01:43:29;-0.37;91.63
68648;SHT31;55632;51.962;16.116;2023-03-03T01:48:38;-0.38;91.60
68648;SHT31;55632;51.962;16.116;2023-03-03T01:53:45;-0.38;91.68
68648;SHT31;55632;51.962;16.116;2023-03-03T01:58:52;-0.38;91.76
68648;SHT31;55632;51.962;16.116;2023-03-03T02:03:54;-0.34;91.80
68648;SHT31;55632;51.962;16.116;2023-03-03T02:09:08;-0.35;91.51
68648;SHT31;55632;51.962;16.116;2023-03-03T02:31:06;-0.42;91.46
68648;SHT31;55632;51.962;16.116;2023-03-03T02:46:33;-0.58;91.09
68648;SHT31;55632;51.962;16.116;2023-03-03T02:51:35;-0.59;91.18
68648;SHT31;55632;51.962;16.116;2023-03-03T02:56:36;-0.65;91.07
68648;SHT31;55632;51.962;16.116;2023-03-03T03:01:38;-0.66;91.18
68648;SHT31;55632;51.962;16.116;2023-03-03T03:06:45;-0.65;91.18
68648;SHT31;55632;51.962;16.116;2023-03-03T03:11:48;-0.68;91.14
68648;SHT31;55632;51.962;16.116;2023-03-03T03:16:52;-0.72;91.04
68648;SHT31;55632;51.962;16.116;2023-03-03T03:21:53;-0.76;91.08
68648;SHT31;55632;51.962;16.116;2023-03-03T03:26:54;-0.76;91.15
68648;SHT31;55632;51.962;16.116;2023-03-03T03:31:57;-0.80;91.14
68648;SHT31;55632;51.962;16.116;2023-03-03T03:36:58;-0.82;91.20
68648;SHT31;55632;51.962;16.116;2023-03-03T03:42:01;-0.80;91.30
68648;SHT31;55632;51.962;16.116;2023-03-03T03:47:02;-0.80;91.30
68648;SHT31;55632;51.962;16.116;2023-03-03T03:52:03;-0.79;91.31
68648;SHT31;55632;51.962;16.116;2023-03-03T03:57:06;-0.80;91.28
68648;SHT31;55632;51.962;16.116;2023-03-03T04:02:09;-0.82;91.40
68648;SHT31;55632;51.962;16.116;2023-03-03T04:07:09;-0.82;91.42
68648;SHT31;55632;51.962;16.116;2023-03-03T04:12:11;-0.79;91.47
68648;SHT31;55632;51.962;16.116;2023-03-03T04:17:18;-0.77;91.43
68648;SHT31;55632;51.962;16.116;2023-03-03T04:22:19;-0.77;91.43
68648;SHT31;55632;51.962;16.116;2023-03-03T04:27:20;-0.79;91.42
68648;SHT31;55632;51.962;16.116;2023-03-03T04:32:22;-0.77;91.47
68648;SHT31;55632;51.962;16.116;2023-03-03T04:37:22;-0.77;91.54
68648;SHT31;55632;51.962;16.116;2023-03-03T04:42:25;-0.75;91.51
68648;SHT31;55632;51.962;16.116;2023-03-03T04:47:28;-0.75;91.52
68648;SHT31;55632;51.962;16.116;2023-03-03T04:52:28;-0.73;91.46
68648;SHT31;55632;51.962;16.116;2023-03-03T04:57:30;-0.72;91.42
68648;SHT31;55632;51.962;16.116;2023-03-03T05:02:31;-0.72;91.43
68648;SHT31;55632;51.962;16.116;2023-03-03T05:07:32;-0.73;91.57
68648;SHT31;55632;51.962;16.116;2023-03-03T05:12:33;-0.70;91.54
68648;SHT31;55632;51.962;16.116;2023-03-03T05:17:34;-0.68;91.55
68648;SHT31;55632;51.962;16.116;2023-03-03T05:22:35;-0.66;91.39
68648;SHT31;55632;51.962;16.116;2023-03-03T05:27:36;-0.68;91.42
68648;SHT31;55632;51.962;16.116;2023-03-03T05:32:36;-0.70;91.40
68648;SHT31;55632;51.962;16.116;2023-03-03T05:37:37;-0.70;91.37
68648;SHT31;55632;51.962;16.116;2023-03-03T05:42:42;-0.72;91.43
68648;SHT31;55632;51.962;16.116;2023-03-03T05:47:42;-0.72;91.42
68648;SHT31;55632;51.962;16.116;2023-03-03T05:52:46;-0.73;91.48
68648;SHT31;55632;51.962;16.116;2023-03-03T05:57:47;-0.75;91.39
68648;SHT31;55632;51.962;16.116;2023-03-03T06:02:47;-0.73;91.43
68648;SHT31;55632;51.962;16.116;2023-03-03T06:07:48;-0.70;91.58
68648;SHT31;55632;51.962;16.116;2023-03-03T06:12:49;-0.70;91.39
68648;SHT31;55632;51.962;16.116;2023-03-03T06:17:50;-0.75;91.32
68648;SHT31;55632;51.962;16.116;2023-03-03T06:22:51;-0.76;91.30
68648;SHT31;55632;51.962;16.116;2023-03-03T06:27:51;-0.80;91.26
68648;SHT31;55632;51.962;16.116;2023-03-03T06:32:52;-0.79;91.40
68648;SHT31;55632;51.962;16.116;2023-03-03T06:37:53;-0.79;91.40
68648;SHT31;55632;51.962;16.116;2023-03-03T06:42:54;-0.76;91.39
68648;SHT31;55632;51.962;16.116;2023-03-03T06:47:55;-0.76;91.22
68648;SHT31;55632;51.962;16.116;2023-03-03T06:53:13;-0.76;91.21
68648;SHT31;55632;51.962;16.116;2023-03-03T06:58:16;-0.77;91.27
68648;SHT31;55632;51.962;16.116;2023-03-03T07:03:21;-0.77;91.19
68648;SHT31;55632;51.962;16.116;2023-03-03T07:08:26;-0.79;91.19
68648;SHT31;55632;51.962;16.116;2023-03-03T07:13:30;-0.76;91.37
68648;SHT31;55632;51.962;16.116;2023-03-03T07:18:53;-0.72;91.38
68648;SHT31;55632;51.962;16.116;2023-03-03T07:23:55;-0.68;91.27
68648;SHT31;55632;51.962;16.116;2023-03-03T07:29:24;-0.66;91.25
68648;SHT31;55632;51.962;16.116;2023-03-03T07:34:37;-0.62;91.38
68648;SHT31;55632;51.962;16.116;2023-03-03T07:39:42;-0.55;91.39
68648;SHT31;55632;51.962;16.116;2023-03-03T07:44:44;-0.55;91.31
68648;SHT31;55632;51.962;16.116;2023-03-03T07:49:49;-0.50;91.23
68648;SHT31;55632;51.962;16.116;2023-03-03T07:54:52;-0.50;91.11
68648;SHT31;55632;51.962;16.116;2023-03-03T07:59:56;-0.48;91.04
68648;SHT31;55632;51.962;16.116;2023-03-03T08:18:33;-0.35;91.13
68648;SHT31;55632;51.962;16.116;2023-03-03T08:24:26;-0.34;91.00
68648;SHT31;55632;51.962;16.116;2023-03-03T08:30:09;-0.30;91.05
68648;SHT31;55632;51.962;16.116;2023-03-03T08:35:20;-0.25;91.09
68648;SHT31;55632;51.962;16.116;2023-03-03T08:40:39;-0.25;90.99
68648;SHT31;55632;51.962;16.116;2023-03-03T08:45:52;-0.23;90.84
68648;SHT31;55632;51.962;16.116;2023-03-03T08:51:06;-0.21;90.90
68648;SHT31;55632;51.962;16.116;2023-03-03T08:56:08;-0.17;90.97
68648;SHT31;55632;51.962;16.116;2023-03-03T09:01:11;-0.16;91.00
68648;SHT31;55632;51.962;16.116;2023-03-03T09:06:17;-0.09;91.08
68648;SHT31;55632;51.962;16.116;2023-03-03T09:18:30;-0.03;90.90
68648;SHT31;55632;51.962;16.116;2023-03-03T09:23:58;0.02;90.90
68648;SHT31;55632;51.962;16.116;2023-03-03T09:35:40;0.11;90.65
68648;SHT31;55632;51.962;16.116;2023-03-03T09:41:09;0.18;90.81
68648;SHT31;55632;51.962;16.116;2023-03-03T09:46:37;0.21;90.73
68648;SHT31;55632;51.962;16.116;2023-03-03T11:14:12;1.09;89.77
68648;SHT31;55632;51.962;16.116;2023-03-03T11:40:20;1.19;89.20
68648;SHT31;55632;51.962;16.116;2023-03-03T11:45:30;1.18;89.17
68648;SHT31;55632;51.962;16.116;2023-03-03T11:50:39;1.18;89.18
68648;SHT31;55632;51.962;16.116;2023-03-03T11:55:46;1.24;89.34
68648;SHT31;55632;51.962;16.116;2023-03-03T12:12:14;1.36;89.23
68648;SHT31;55632;51.962;16.116;2023-03-03T12:17:26;1.40;89.20
68648;SHT31;55632;51.962;16.116;2023-03-03T12:28:21;1.50;88.99
68648;SHT31;55632;51.962;16.116;2023-03-03T12:38:43;1.60;88.76
68648;SHT31;55632;51.962;16.116;2023-03-03T12:48:52;1.66;88.52
68648;SHT31;55632;51.962;16.116;2023-03-03T12:59:10;1.74;88.43
68648;SHT31;55632;51.962;16.116;2023-03-03T13:04:37;1.71;88.16
68648;SHT31;55632;51.962;16.116;2023-03-03T13:10:08;1.74;88.27
68648;SHT31;55632;51.962;16.116;2023-03-03T13:15:25;1.75;88.17
68648;SHT31;55632;51.962;16.116;2023-03-03T13:20:43;1.73;88.00
68648;SHT31;55632;51.962;16.116;2023-03-03T13:31:02;1.71;88.03
68648;SHT31;55632;51.962;16.116;2023-03-03T13:36:08;1.68;87.80
68648;SHT31;55632;51.962;16.116;2023-03-03T13:52:01;1.75;87.92
68648;SHT31;55632;51.962;16.116;2023-03-03T14:12:41;1.71;87.55
68648;SHT31;55632;51.962;16.116;2023-03-03T14:23:03;1.74;87.89
68648;SHT31;55632;51.962;16.116;2023-03-03T14:28:11;1.75;87.63
68648;SHT31;55632;51.962;16.116;2023-03-03T14:33:20;1.70;87.62
68648;SHT31;55632;51.962;16.116;2023-03-03T14:38:24;1.70;87.74
68648;SHT31;55632;51.962;16.116;2023-03-03T14:43:39;1.74;87.79
68648;SHT31;55632;51.962;16.116;2023-03-03T14:48:50;1.75;87.75
68648;SHT31;55632;51.962;16.116;2023-03-03T14:53:51;1.77;87.68
68648;SHT31;55632;51.962;16.116;2023-03-03T14:59:39;1.75;87.61
68648;SHT31;55632;51.962;16.116;2023-03-03T15:04:26;1.70;87.74
68648;SHT31;55632;51.962;16.116;2023-03-03T15:09:33;1.74;87.88
68648;SHT31;55632;51.962;16.116;2023-03-03T15:14:42;1.75;87.76
68648;SHT31;55632;51.962;16.116;2023-03-03T15:19:49;1.71;87.61
68648;SHT31;55632;51.962;16.116;2023-03-03T15:25:08;1.70;87.75
68648;SHT31;55632;51.962;16.116;2023-03-03T15:30:32;1.71;87.84
68648;SHT31;55632;51.962;16.116;2023-03-03T15:36:43;1.75;87.78
68648;SHT31;55632;51.962;16.116;2023-03-03T15:41:38;1.73;87.79
68648;SHT31;55632;51.962;16.116;2023-03-03T15:46:49;1.74;87.84
68648;SHT31;55632;51.962;16.116;2023-03-03T15:57:11;1.68;87.71
68648;SHT31;55632;51.962;16.116;2023-03-03T16:02:38;1.64;87.77
68648;SHT31;55632;51.962;16.116;2023-03-03T16:07:55;1.60;87.84
68648;SHT31;55632;51.962;16.116;2023-03-03T16:34:23;1.51;87.98
68648;SHT31;55632;51.962;16.116;2023-03-03T16:45:00;1.50;88.24
68648;SHT31;55632;51.962;16.116;2023-03-03T17:01:37;1.43;88.39
68648;SHT31;55632;51.962;16.116;2023-03-03T17:06:44;1.43;88.45
68648;SHT31;55632;51.962;16.116;2023-03-03T17:28:07;1.31;88.56
68648;SHT31;55632;51.962;16.116;2023-03-03T17:49:45;1.21;88.66
68648;SHT31;55632;51.962;16.116;2023-03-03T18:05:41;1.09;88.83
68648;SHT31;55632;51.962;16.116;2023-03-03T18:22:19;1.01;88.89
68648;SHT31;55632;51.962;16.116;2023-03-03T18:32:24;0.98;89.01
68648;SHT31;55632;51.962;16.116;2023-03-03T18:37:41;0.99;88.99
68648;SHT31;55632;51.962;16.116;2023-03-03T18:42:43;0.98;89.04
68648;SHT31;55632;51.962;16.116;2023-03-03T18:53:28;0.94;89.12
68648;SHT31;55632;51.962;16.116;2023-03-03T18:58:38;0.95;89.17
68648;SHT31;55632;51.962;16.116;2023-03-03T19:08:53;0.92;89.15
68648;SHT31;55632;51.962;16.116;2023-03-03T19:14:14;0.92;89.16
68648;SHT31;55632;51.962;16.116;2023-03-03T19:19:24;0.91;89.31
68648;SHT31;55632;51.962;16.116;2023-03-03T19:24:35;0.92;89.33
68648;SHT31;55632;51.962;16.116;2023-03-03T19:55:56;1.01;89.44
68648;SHT31;55632;51.962;16.116;2023-03-03T20:17:30;1.07;89.51
68648;SHT31;55632;51.962;16.116;2023-03-03T20:23:04;1.08;89.59
68648;SHT31;55632;51.962;16.116;2023-03-03T20:34:01;1.12;89.63
68648;SHT31;55632;51.962;16.116;2023-03-03T20:39:10;1.14;89.73
68648;SHT31;55632;51.962;16.116;2023-03-03T20:44:58;1.18;89.69
68648;SHT31;55632;51.962;16.116;2023-03-03T20:50:47;1.24;89.72
68648;SHT31;55632;51.962;16.116;2023-03-03T21:01:11;1.28;89.73
68648;SHT31;55632;51.962;16.116;2023-03-03T21:06:18;1.31;89.70
68648;SHT31;55632;51.962;16.116;2023-03-03T21:16:31;1.38;89.78
68648;SHT31;55632;51.962;16.116;2023-03-03T21:21:50;1.40;89.76
68648;SHT31;55632;51.962;16.116;2023-03-03T21:26:59;1.42;89.78
68648;SHT31;55632;51.962;16.116;2023-03-03T21:32:04;1.44;89.79
68648;SHT31;55632;51.962;16.116;2023-03-03T21:37:10;1.47;89.74
68648;SHT31;55632;51.962;16.116;2023-03-03T21:42:26;1.50;89.69
68648;SHT31;55632;51.962;16.116;2023-03-03T21:47:34;1.51;89.68
68648;SHT31;55632;51.962;16.116;2023-03-03T21:52:35;1.54;89.60
68648;SHT31;55632;51.962;16.116;2023-03-03T21:57:37;1.54;89.63
68648;SHT31;55632;51.962;16.116;2023-03-03T22:02:38;1.56;89.56
68648;SHT31;55632;51.962;16.116;2023-03-03T22:07:39;1.54;89.61
68648;SHT31;55632;51.962;16.116;2023-03-03T22:12:41;1.57;89.59
68648;SHT31;55632;51.962;16.116;2023-03-03T22:17:41;1.60;89.56
68648;SHT31;55632;51.962;16.116;2023-03-03T22:22:42;1.60;89.56
68648;SHT31;55632;51.962;16.116;2023-03-03T22:27:43;1.63;89.53
68648;SHT31;55632;51.962;16.116;2023-03-03T22:32:44;1.66;89.52
68648;SHT31;55632;51.962;16.116;2023-03-03T22:38:17;1.68;89.43
68648;SHT31;55632;51.962;16.116;2023-03-03T22:43:18;1.68;89.42
68648;SHT31;55632;51.962;16.116;2023-03-03T22:48:19;1.70;89.41
68648;SHT31;55632;51.962;16.116;2023-03-03T22:53:20;1.71;89.39
68648;SHT31;55632;51.962;16.116;2023-03-03T22:58:21;1.73;89.36
68648;SHT31;55632;51.962;16.116;2023-03-03T23:03:24;1.75;89.36
68648;SHT31;55632;51.962;16.116;2023-03-03T23:08:25;1.78;89.30
68648;SHT31;55632;51.962;16.116;2023-03-03T23:13:27;1.81;89.24
68648;SHT31;55632;51.962;16.116;2023-03-03T23:18:28;1.79;89.20
68648;SHT31;55632;51.962;16.116;2023-03-03T23:23:29;1.87;89.12
68648;SHT31;55632;51.962;16.116;2023-03-03T23:28:30;1.82;89.14
68648;SHT31;55632;51.962;16.116;2023-03-03T23:33:31;1.88;89.10
68648;SHT31;55632;51.962;16.116;2023-03-03T23:38:34;1.91;89.05
68648;SHT31;55632;51.962;16.116;2023-03-03T23:43:35;1.97;88.89
68648;SHT31;55632;51.962;16.116;2023-03-03T23:48:36;1.99;88.76
68648;SHT31;55632;51.962;16.116;2023-03-03T23:53:37;2.04;88.54
68648;SHT31;55632;51.962;16.116;2023-03-03T23:58:38;2.04;88.44
